Time;durP1;ratioP1;P1;durP2;ratioP2;P2;SDS_P1;SDS_P2;PMS_P1;PMS_P2;Temp;Humidity;BMP_temperature;BMP_pressure;BME280_temperature;BME280_humidity;BME280_pressure;Samples;Min_cycle;Max_cycle;Signal;HPM_P1;HPM_P2
2023/12/09 00:01:11;;;;;;;6.55;3.60;;;15.50;57.60;;;;;;5052143;28;20174;-64
2023/12/09 00:03:37;;;;;;;4.95;3.03;;;15.50;57.60;;;;;;5051233;28;20179;-64
2023/12/09 00:06:04;;;;;;;6.20;3.35;;;15.50;57.70;;;;;;5052090;28;20182;-64
2023/12/09 00:08:29;;;;;;;5.95;3.25;;;15.50;57.60;;;;;;5049854;28;20260;-65
2023/12/09 00:10:55;;;;;;;5.25;3.10;;;15.40;57.60;;;;;;5051581;28;20178;-64
2023/12/09 00:13:20;;;;;;;5.88;3.63;;;15.50;57.70;;;;;;5051885;28;20193;-65
2023/12/09 00:15:46;;;;;;;6.05;3.25;;;15.40;57.60;;;;;;5052034;28;20222;-64
2023/12/09 00:18:11;;;;;;;6.32;3.13;;;15.40;57.60;;;;;;5051408;28;20270;-64
2023/12/09 00:20:37;;;;;;;6.80;3.58;;;15.40;57.60;;;;;;5051539;28;20638;-64
2023/12/09 00:23:03;;;;;;;6.38;3.33;;;15.40;57.70;;;;;;5051911;28;20266;-64
2023/12/09 00:25:28;;;;;;;4.22;3.08;;;15.40;57.80;;;;;;5050874;28;20171;-65
2023/12/09 00:27:54;;;;;;;4.80;3.30;;;15.40;57.80;;;;;;5052050;28;20238;-65
2023/12/09 00:30:19;;;;;;;8.35;3.55;;;15.30;57.70;;;;;;5050972;28;20178;-65
2023/12/09 00:32:45;;;;;;;6.45;3.47;;;15.40;57.70;;;;;;5052065;28;20178;-65
2023/12/09 00:35:11;;;;;;;5.63;3.58;;;15.40;57.80;;;;;;5051687;28;20178;-65
2023/12/09 00:37:36;;;;;;;6.03;3.17;;;15.40;57.80;;;;;;5050726;28;20171;-64
2023/12/09 00:40:02;;;;;;;7.13;3.58;;;15.40;57.80;;;;;;5051597;28;20189;-64
2023/12/09 00:42:28;;;;;;;5.05;2.90;;;15.30;57.80;;;;;;5051624;28;20179;-65
2023/12/09 00:44:53;;;;;;;5.68;3.38;;;15.30;57.80;;;;;;5051212;28;20171;-65
2023/12/09 00:47:19;;;;;;;8.98;3.78;;;15.30;58.40;;;;;;5051399;28;20194;-65
2023/12/09 00:49:44;;;;;;;4.82;3.03;;;15.30;57.80;;;;;;5051699;28;20664;-65
2023/12/09 00:52:11;;;;;;;6.13;3.22;;;15.30;57.80;;;;;;5051030;28;20698;-65
2023/12/09 00:54:36;;;;;;;4.80;3.10;;;15.30;57.80;;;;;;5050885;28;20626;-65
2023/12/09 00:57:02;;;;;;;5.55;3.15;;;15.30;57.80;;;;;;5051639;28;20658;-64
2023/12/09 00:59:28;;;;;;;4.35;3.10;;;15.30;57.80;;;;;;5050730;28;20523;-64
2023/12/09 01:01:53;;;;;;;5.97;3.25;;;15.30;57.80;;;;;;5051613;28;20199;-64
2023/12/09 01:04:19;;;;;;;6.72;3.35;;;15.30;57.80;;;;;;5051314;28;20194;-64
2023/12/09 01:06:44;;;;;;;4.82;3.05;;;15.30;57.80;;;;;;5050846;28;20589;-64
2023/12/09 01:09:10;;;;;;;6.53;3.28;;;15.30;57.80;;;;;;5051361;28;20677;-64
2023/12/09 01:11:35;;;;;;;7.38;4.00;;;15.30;57.80;;;;;;5051080;28;20163;-64
2023/12/09 01:14:01;;;;;;;5.63;3.20;;;15.20;57.80;;;;;;5050772;28;20225;-64
2023/12/09 01:16:26;;;;;;;6.18;3.28;;;15.20;57.90;;;;;;5051049;28;20181;-63
2023/12/09 01:18:52;;;;;;;5.32;3.17;;;15.20;57.80;;;;;;5051201;28;20183;-64
2023/12/09 01:21:17;;;;;;;5.13;3.15;;;15.20;57.90;;;;;;5053016;28;20178;-64
2023/12/09 01:23:43;;;;;;;4.50;3.22;;;15.20;57.80;;;;;;5054952;28;20183;-64
2023/12/09 01:26:08;;;;;;;5.65;3.22;;;15.20;57.90;;;;;;5054822;28;20186;-64
2023/12/09 01:28:34;;;;;;;5.72;3.38;;;15.20;58.50;;;;;;5053774;28;20225;-64
2023/12/09 01:30:59;;;;;;;6.85;3.30;;;15.20;57.90;;;;;;5054854;28;20175;-64
2023/12/09 01:33:25;;;;;;;7.10;3.40;;;15.20;57.90;;;;;;5054405;28;20266;-64
2023/12/09 01:35:50;;;;;;;8.60;3.33;;;15.20;57.90;;;;;;5054089;28;20179;-64
2023/12/09 01:38:16;;;;;;;5.45;2.70;;;15.20;57.90;;;;;;5054429;28;20175;-64
2023/12/09 01:40:42;;;;;;;5.72;3.55;;;15.20;58.00;;;;;;5054162;28;20183;-64
2023/12/09 01:43:09;;;;;;;8.65;3.33;;;15.20;58.00;;;;;;5054733;28;20179;-64
2023/12/09 01:45:35;;;;;;;5.32;3.17;;;15.20;58.00;;;;;;5054124;28;20179;-65
2023/12/09 01:48:01;;;;;;;5.88;3.75;;;15.10;57.90;;;;;;5053864;28;20209;-65
2023/12/09 01:50:27;;;;;;;7.25;3.53;;;15.20;58.00;;;;;;5053057;28;20274;-65
2023/12/09 01:52:53;;;;;;;6.55;3.60;;;15.10;58.00;;;;;;5054104;28;20684;-65
2023/12/09 01:55:18;;;;;;;6.03;3.30;;;15.10;58.00;;;;;;5053371;28;20218;-65
2023/12/09 01:57:44;;;;;;;6.93;3.42;;;15.10;58.00;;;;;;5053330;28;20206;-64
2023/12/09 02:00:10;;;;;;;6.78;4.03;;;15.10;58.00;;;;;;5053042;28;20270;-64
2023/12/09 02:02:35;;;;;;;7.40;3.70;;;15.10;58.00;;;;;;5052038;28;20590;-64
2023/12/09 02:05:01;;;;;;;5.57;3.13;;;15.10;58.00;;;;;;5054159;28;20167;-64
2023/12/09 02:07:26;;;;;;;7.15;3.33;;;15.10;58.00;;;;;;5053748;28;20195;-64
2023/12/09 02:09:52;;;;;;;5.40;3.30;;;15.10;58.00;;;;;;5053624;28;20186;-64
2023/12/09 02:12:21;;;;;;;7.03;3.45;;;15.00;58.00;;;;;;5052518;28;20171;-64
2023/12/09 02:15:05;;;;;;;7.13;3.30;;;15.00;58.00;;;;;;5053502;28;20661;-64
2023/12/09 02:17:33;;;;;;;8.43;3.88;;;15.00;58.00;;;;;;5051869;28;20175;-64
2023/12/09 02:20:00;;;;;;;5.95;3.28;;;15.10;58.10;;;;;;5053982;28;20179;-63
2023/12/09 02:22:26;;;;;;;7.22;3.33;;;15.00;58.00;;;;;;5052519;28;20183;-64
2023/12/09 02:24:51;;;;;;;7.38;3.10;;;15.00;58.10;;;;;;5053376;28;20219;-64
2023/12/09 02:27:33;;;;;;;5.40;3.22;;;15.00;58.10;;;;;;5053639;28;20194;-65
2023/12/09 02:30:21;;;;;;;6.07;3.78;;;15.00;58.10;;;;;;5052091;28;20179;-65
2023/12/09 02:32:47;;;;;;;6.03;3.40;;;15.00;58.10;;;;;;5052078;28;20255;-64
2023/12/09 02:35:13;;;;;;;6.75;3.65;;;15.00;58.10;;;;;;5052567;28;20175;-64
2023/12/09 02:37:38;;;;;;;7.07;3.30;;;15.00;58.10;;;;;;5051296;28;20634;-64
2023/12/09 02:40:09;;;;;;;6.00;3.28;;;15.00;58.10;;;;;;5052412;28;20182;-64
2023/12/09 02:42:35;;;;;;;6.38;3.25;;;15.00;58.10;;;;;;5053346;28;20178;-64
2023/12/09 02:45:01;;;;;;;5.57;3.25;;;15.00;58.10;;;;;;5051528;28;20167;-64
2023/12/09 02:47:26;;;;;;;6.60;3.55;;;14.90;58.10;;;;;;5052019;28;20206;-65
2023/12/09 02:49:52;;;;;;;8.20;3.63;;;15.00;58.10;;;;;;5053331;28;20527;-65
2023/12/09 02:52:17;;;;;;;5.93;3.28;;;15.00;58.20;;;;;;5052303;28;20198;-65
2023/12/09 02:54:43;;;;;;;7.28;3.22;;;15.00;58.20;;;;;;5053136;28;20218;-65
2023/12/09 02:57:08;;;;;;;5.35;2.72;;;15.00;58.20;;;;;;5053251;28;20175;-64
2023/12/09 02:59:34;;;;;;;6.63;3.47;;;14.90;58.20;;;;;;5052016;28;20310;-64
2023/12/09 03:01:59;;;;;;;5.15;3.28;;;14.90;58.20;;;;;;5053335;28;20647;-63
2023/12/09 03:04:26;;;;;;;5.40;3.17;;;14.90;58.20;;;;;;5052882;28;20171;-64
2023/12/09 03:06:52;;;;;;;7.03;3.20;;;14.90;58.30;;;;;;5051189;28;20178;-64
2023/12/09 03:09:17;;;;;;;5.85;3.13;;;14.90;58.20;;;;;;5052628;28;20215;-64
2023/12/09 03:11:43;;;;;;;7.93;3.50;;;14.90;58.20;;;;;;5052954;28;20171;-65
2023/12/09 03:14:08;;;;;;;6.78;3.42;;;14.90;58.20;;;;;;5052159;28;20622;-64
2023/12/09 03:16:37;;;;;;;8.23;3.17;;;14.90;58.20;;;;;;5052469;28;20174;-63
2023/12/09 03:19:03;;;;;;;6.07;3.35;;;14.90;58.20;;;;;;5052687;28;20639;-63
2023/12/09 03:21:29;;;;;;;6.65;3.13;;;14.90;58.30;;;;;;5051746;28;20179;-64
2023/12/09 03:23:54;;;;;;;6.38;3.42;;;14.90;58.30;;;;;;5052787;28;20217;-64
2023/12/09 03:26:20;;;;;;;6.50;3.20;;;14.90;58.30;;;;;;5051609;28;20183;-64
2023/12/09 03:28:45;;;;;;;5.85;3.30;;;14.90;58.30;;;;;;5051263;28;20210;-65
2023/12/09 03:31:15;;;;;;;6.10;3.10;;;14.90;58.30;;;;;;5052615;28;20262;-64
2023/12/09 03:33:41;;;;;;;5.75;2.97;;;14.80;58.20;;;;;;5051823;28;20178;-64
2023/12/09 03:36:08;;;;;;;5.15;2.90;;;14.90;58.30;;;;;;5052416;28;20179;-64
2023/12/09 03:38:33;;;;;;;5.32;3.40;;;14.90;58.30;;;;;;5052287;28;20179;-64
2023/12/09 03:40:59;;;;;;;3.83;2.83;;;14.80;58.30;;;;;;5051775;28;20190;-64
2023/12/09 03:43:24;;;;;;;6.25;3.50;;;14.90;58.40;;;;;;5051250;28;20265;-65
2023/12/09 03:45:50;;;;;;;7.28;3.30;;;14.90;58.30;;;;;;5052478;28;20250;-65
2023/12/09 03:48:15;;;;;;;5.82;3.05;;;14.80;58.30;;;;;;5051380;28;20297;-65
2023/12/09 03:50:41;;;;;;;6.82;3.33;;;14.80;58.30;;;;;;5052454;28;20171;-65
2023/12/09 03:53:07;;;;;;;5.63;2.78;;;14.80;58.40;;;;;;5051998;28;20175;-65
2023/12/09 03:55:33;;;;;;;5.95;3.40;;;14.80;58.40;;;;;;5051179;28;20217;-64
2023/12/09 03:57:59;;;;;;;4.55;3.42;;;14.80;58.30;;;;;;5052077;28;20175;-64
2023/12/09 04:00:24;;;;;;;7.15;3.63;;;14.80;58.30;;;;;;5051767;28;20262;-64
2023/12/09 04:02:50;;;;;;;5.25;2.88;;;14.80;58.40;;;;;;5051340;28;20187;-64
2023/12/09 04:05:15;;;;;;;6.63;3.03;;;14.80;58.30;;;;;;5051946;28;20179;-64
2023/12/09 04:07:41;;;;;;;5.35;2.80;;;14.80;58.40;;;;;;5052090;28;20211;-64
2023/12/09 04:10:09;;;;;;;5.15;3.20;;;14.80;58.40;;;;;;5051394;28;20175;-65
2023/12/09 04:12:34;;;;;;;7.00;2.92;;;14.80;58.30;;;;;;5051621;28;20186;-64
2023/12/09 04:15:01;;;;;;;5.30;2.63;;;14.80;58.40;;;;;;5052129;28;20174;-64
2023/12/09 04:17:26;;;;;;;6.05;3.15;;;14.80;58.40;;;;;;5051099;28;20175;-64
2023/12/09 04:19:52;;;;;;;6.25;3.40;;;14.70;58.90;;;;;;5052018;28;20538;-64
2023/12/09 04:22:18;;;;;;;6.07;3.40;;;14.80;58.30;;;;;;5051697;28;20167;-65
2023/12/09 04:24:43;;;;;;;6.57;2.90;;;14.70;58.40;;;;;;5051337;28;20286;-65
2023/12/09 04:27:09;;;;;;;4.90;2.67;;;14.70;59.00;;;;;;5051900;28;20218;-65
2023/12/09 04:29:34;;;;;;;7.20;3.78;;;14.70;58.30;;;;;;5050999;28;20364;-65
2023/12/09 04:32:00;;;;;;;6.05;2.75;;;14.70;58.40;;;;;;5051827;28;20634;-65
2023/12/09 04:34:25;;;;;;;5.45;3.00;;;14.70;58.40;;;;;;5051467;28;20183;-64
2023/12/09 04:36:51;;;;;;;6.78;3.13;;;14.70;58.40;;;;;;5051143;28;20258;-64
2023/12/09 04:39:16;;;;;;;5.82;2.60;;;14.70;58.40;;;;;;5051558;28;20178;-64
2023/12/09 04:41:42;;;;;;;5.13;2.67;;;14.70;58.40;;;;;;5051675;28;20183;-65
2023/12/09 04:44:08;;;;;;;6.70;3.08;;;14.70;58.40;;;;;;5050885;28;20169;-65
2023/12/09 04:46:33;;;;;;;6.57;3.15;;;14.70;58.40;;;;;;5051367;28;20194;-65
2023/12/09 04:48:59;;;;;;;5.90;2.63;;;14.70;58.50;;;;;;5051573;28;20226;-66
2023/12/09 04:51:24;;;;;;;5.32;3.13;;;14.70;58.40;;;;;;5050577;28;20182;-65
2023/12/09 04:53:50;;;;;;;6.25;2.85;;;14.70;58.50;;;;;;5051437;28;20223;-65
2023/12/09 04:56:16;;;;;;;5.68;2.80;;;14.70;58.50;;;;;;5054097;28;20179;-64
2023/12/09 04:58:42;;;;;;;5.53;2.88;;;14.70;58.50;;;;;;5053366;28;20197;-64
2023/12/09 05:01:08;;;;;;;5.40;2.67;;;14.70;58.50;;;;;;5055471;28;20178;-64
2023/12/09 05:03:34;;;;;;;5.47;3.00;;;14.70;58.50;;;;;;5055230;28;20183;-64
2023/12/09 05:06:00;;;;;;;6.78;3.20;;;14.60;58.40;;;;;;5054625;28;20231;-64
2023/12/09 05:08:26;;;;;;;7.18;3.40;;;14.70;58.50;;;;;;5055055;28;20218;-64
2023/12/09 05:10:52;;;;;;;6.78;3.08;;;14.70;58.60;;;;;;5055156;28;20179;-64
2023/12/09 05:13:17;;;;;;;4.65;2.88;;;14.70;58.50;;;;;;5054113;28;20622;-64
2023/12/09 05:15:43;;;;;;;6.28;3.05;;;14.70;58.50;;;;;;5055125;28;20171;-64
2023/12/09 05:18:09;;;;;;;4.70;3.10;;;14.60;58.40;;;;;;5055188;28;20184;-64
2023/12/09 05:20:34;;;;;;;3.92;2.63;;;14.60;58.50;;;;;;5054098;28;20313;-63
2023/12/09 05:23:00;;;;;;;6.05;3.17;;;14.60;58.50;;;;;;5055001;28;20262;-64
2023/12/09 05:25:26;;;;;;;4.10;2.65;;;14.60;58.50;;;;;;5054611;28;20270;-63
2023/12/09 05:27:51;;;;;;;4.63;2.92;;;14.60;59.10;;;;;;5054243;28;20215;-64
2023/12/09 05:30:17;;;;;;;6.25;2.72;;;14.60;58.50;;;;;;5054385;28;20182;-64
2023/12/09 05:32:42;;;;;;;5.90;3.03;;;14.60;58.60;;;;;;5054731;28;20175;-63
2023/12/09 05:35:08;;;;;;;6.03;2.78;;;14.60;58.50;;;;;;5054367;28;20182;-64
2023/12/09 05:37:34;;;;;;;6.78;3.17;;;14.60;58.50;;;;;;5054512;28;20262;-63
2023/12/09 05:39:59;;;;;;;5.38;3.00;;;14.60;58.50;;;;;;5053989;28;20657;-64
2023/12/09 05:42:25;;;;;;;6.28;3.35;;;14.60;58.60;;;;;;5054524;28;20649;-65
2023/12/09 05:44:51;;;;;;;6.38;3.58;;;14.60;58.50;;;;;;5054746;28;20195;-64
2023/12/09 05:47:16;;;;;;;6.57;2.90;;;14.60;58.60;;;;;;5053738;28;20615;-66
2023/12/09 05:49:42;;;;;;;5.40;2.78;;;14.60;58.60;;;;;;5054591;28;20241;-65
2023/12/09 05:52:07;;;;;;;6.10;3.08;;;14.50;58.50;;;;;;5054497;28;20638;-65
2023/12/09 05:54:34;;;;;;;4.93;2.58;;;14.50;58.60;;;;;;5053210;28;20779;-65
2023/12/09 05:56:59;;;;;;;5.70;3.08;;;14.50;58.50;;;;;;5054550;28;20183;-63
2023/12/09 05:59:25;;;;;;;7.22;2.60;;;14.60;58.50;;;;;;5054227;28;20272;-64
2023/12/09 06:01:50;;;;;;;6.28;2.58;;;14.50;58.60;;;;;;5053743;28;20167;-63
2023/12/09 06:04:16;;;;;;;4.68;2.65;;;14.50;58.60;;;;;;5053905;28;20660;-63
2023/12/09 06:06:41;;;;;;;10.05;3.40;;;14.50;58.60;;;;;;5053286;28;20173;-64
2023/12/09 06:09:07;;;;;;;5.95;2.70;;;14.50;58.50;;;;;;5053374;28;20578;-64
2023/12/09 06:11:32;;;;;;;5.05;2.60;;;14.60;58.50;;;;;;5053816;28;20175;-65
2023/12/09 06:13:58;;;;;;;5.65;2.88;;;14.60;58.40;;;;;;5054007;28;20190;-64
2023/12/09 06:16:23;;;;;;;4.88;2.22;;;14.60;58.30;;;;;;5053153;28;20187;-63
2023/12/09 06:18:49;;;;;;;4.82;2.50;;;14.70;58.40;;;;;;5054095;28;20187;-63
2023/12/09 06:21:24;;;;;;;4.47;2.55;;;14.80;58.40;;;;;;5053816;28;20175;-63
2023/12/09 06:23:50;;;;;;;5.85;3.13;;;14.90;58.30;;;;;;5053264;28;20182;-65
2023/12/09 06:26:16;;;;;;;4.30;2.53;;;15.00;58.30;;;;;;5053845;28;20177;-64
2023/12/09 06:28:41;;;;;;;4.45;2.35;;;15.20;58.20;;;;;;5053828;28;20662;-64
2023/12/09 06:31:07;;;;;;;6.72;3.40;;;15.30;58.10;;;;;;5053351;28;20171;-64
2023/12/09 06:33:33;;;;;;;5.57;2.15;;;15.40;57.90;;;;;;5053519;28;20223;-65
2023/12/09 06:35:59;;;;;;;4.40;2.47;;;15.50;57.70;;;;;;5053657;28;20182;-65
2023/12/09 06:38:25;;;;;;;3.13;2.17;;;15.60;57.50;;;;;;5052575;28;20183;-63
2023/12/09 06:40:51;;;;;;;3.45;2.20;;;15.70;57.40;;;;;;5053694;28;20172;-64
2023/12/09 06:43:16;;;;;;;3.75;2.22;;;15.80;57.30;;;;;;5052710;28;20258;-64
2023/12/09 06:45:42;;;;;;;4.65;2.17;;;15.90;57.20;;;;;;5053634;28;20312;-65
2023/12/09 06:48:07;;;;;;;3.17;2.17;;;15.90;57.20;;;;;;5053369;28;20685;-66
2023/12/09 06:50:33;;;;;;;3.58;2.10;;;15.90;57.70;;;;;;5052413;28;20175;-65
2023/12/09 06:53:00;;;;;;;4.50;2.30;;;16.00;57.00;;;;;;5053024;28;20179;-64
2023/12/09 06:55:26;;;;;;;2.45;2.13;;;16.00;57.00;;;;;;5052962;28;20657;-65
2023/12/09 06:57:51;;;;;;;4.75;2.13;;;16.10;56.90;;;;;;5052482;28;20190;-64
2023/12/09 07:00:17;;;;;;;5.45;2.10;;;16.20;56.70;;;;;;5052957;28;20175;-64
2023/12/09 07:02:43;;;;;;;4.70;2.25;;;16.10;56.60;;;;;;5053252;28;20593;-64
2023/12/09 07:05:12;;;;;;;3.05;1.85;;;16.20;56.70;;;;;;5052501;28;20167;-63
2023/12/09 07:07:37;;;;;;;4.82;2.15;;;16.20;56.70;;;;;;5052579;28;22146;-64
2023/12/09 07:10:05;;;;;;;3.38;1.80;;;16.10;56.60;;;;;;5053179;28;20265;-64
2023/12/09 07:12:31;;;;;;;5.20;2.00;;;16.10;56.80;;;;;;5051740;28;20177;-64
2023/12/09 07:14:58;;;;;;;5.35;2.40;;;16.10;56.90;;;;;;5052992;28;20175;-64
2023/12/09 07:17:24;;;;;;;6.38;2.28;;;16.10;57.00;;;;;;5052638;28;20179;-64
2023/12/09 07:19:52;;;;;;;4.00;1.90;;;16.10;57.20;;;;;;5051956;28;20221;-63
2023/12/09 07:22:18;;;;;;;4.93;2.13;;;16.20;57.00;;;;;;5052100;28;20178;-64
2023/12/09 07:24:43;;;;;;;4.50;2.03;;;16.40;56.80;;;;;;5052953;28;20237;-64
2023/12/09 07:27:09;;;;;;;3.17;1.95;;;16.50;56.80;;;;;;5050628;28;20218;-64
2023/12/09 07:29:35;;;;;;;3.72;1.70;;;16.70;56.20;;;;;;5052337;28;20210;-65
2023/12/09 07:32:00;;;;;;;6.10;2.08;;;17.00;55.90;;;;;;5052683;28;20171;-64
2023/12/09 07:34:26;;;;;;;4.55;2.35;;;17.20;55.60;;;;;;5050086;28;20263;-64
2023/12/09 07:36:52;;;;;;;5.50;2.25;;;17.40;55.40;;;;;;5052520;28;20585;-64
2023/12/09 07:39:17;;;;;;;6.13;1.98;;;17.40;55.20;;;;;;5051635;28;20261;-64
2023/12/09 07:41:43;;;;;;;4.25;2.45;;;17.50;55.10;;;;;;5051579;28;20258;-64
2023/12/09 07:44:09;;;;;;;5.28;2.25;;;17.50;55.20;;;;;;5052048;28;20183;-65
2023/12/09 07:46:36;;;;;;;4.63;2.10;;;17.60;55.10;;;;;;5051071;28;20179;-65
2023/12/09 07:49:01;;;;;;;4.55;2.03;;;17.70;55.20;;;;;;5051219;28;20234;-65
2023/12/09 07:51:27;;;;;;;3.20;1.63;;;17.80;55.00;;;;;;5051629;28;20171;-64
2023/12/09 07:53:52;;;;;;;5.50;2.85;;;17.80;54.90;;;;;;5051556;28;20231;-64
2023/12/09 07:56:18;;;;;;;7.72;2.17;;;17.80;55.40;;;;;;5052030;28;20174;-66
2023/12/09 07:58:45;;;;;;;6.97;2.10;;;17.80;55.00;;;;;;5052205;28;20179;-64
2023/12/09 08:01:11;;;;;;;4.60;1.83;;;17.80;55.10;;;;;;5051455;28;20207;-65
2023/12/09 08:03:36;;;;;;;4.25;2.10;;;17.90;55.20;;;;;;5050545;28;20201;-68
2023/12/09 08:06:02;;;;;;;3.25;2.10;;;17.80;55.40;;;;;;5052226;28;20257;-65
2023/12/09 08:08:28;;;;;;;5.47;1.90;;;17.70;55.50;;;;;;5051052;28;20214;-65
2023/12/09 08:10:54;;;;;;;2.85;1.83;;;17.60;55.60;;;;;;5051817;28;20568;-65
2023/12/09 08:13:19;;;;;;;6.05;2.42;;;17.50;55.50;;;;;;5051785;28;20645;-65
2023/12/09 08:15:45;;;;;;;6.47;2.08;;;17.50;55.80;;;;;;5050779;28;20164;-65
2023/12/09 08:18:10;;;;;;;5.72;1.90;;;17.50;55.70;;;;;;5051793;28;20258;-64
2023/12/09 08:20:36;;;;;;;5.45;2.28;;;17.40;55.60;;;;;;5051839;28;20266;-66
2023/12/09 08:23:03;;;;;;;4.47;2.00;;;17.40;55.70;;;;;;5051397;28;20175;-66
2023/12/09 08:25:29;;;;;;;7.82;2.00;;;17.40;55.70;;;;;;5051549;28;20313;-65
2023/12/09 08:27:54;;;;;;;4.85;2.28;;;17.40;55.70;;;;;;5051796;28;20277;-65
2023/12/09 08:30:20;;;;;;;7.55;2.15;;;17.40;55.70;;;;;;5052120;28;20545;-65
2023/12/09 08:32:45;;;;;;;4.10;2.00;;;17.40;55.80;;;;;;5055802;28;20167;-65
2023/12/09 08:35:11;;;;;;;4.70;2.17;;;17.40;55.80;;;;;;5058513;28;20247;-64
2023/12/09 08:37:37;;;;;;;3.63;1.80;;;17.40;56.50;;;;;;5066432;28;20182;-65
2023/12/09 08:40:12;;;;;;;4.22;1.90;;;17.30;55.80;;;;;;5060377;28;20175;-64
2023/12/09 08:42:38;;;;;;;3.88;1.73;;;17.30;55.80;;;;;;5054937;28;20316;-65
2023/12/09 08:45:05;;;;;;;4.20;2.13;;;17.30;55.80;;;;;;5055503;28;20179;-66
2023/12/09 08:47:30;;;;;;;5.70;2.15;;;17.30;55.90;;;;;;5055077;28;20697;-68
2023/12/09 08:49:56;;;;;;;5.43;2.20;;;17.20;55.90;;;;;;5054956;28;20274;-68
2023/12/09 08:52:21;;;;;;;4.43;1.52;;;17.20;56.10;;;;;;5055424;28;20181;-65
2023/12/09 08:54:47;;;;;;;7.00;2.00;;;17.10;56.20;;;;;;5055318;28;20321;-67
2023/12/09 08:57:13;;;;;;;6.53;1.80;;;17.00;56.30;;;;;;5054779;28;20175;-65
2023/12/09 08:59:41;;;;;;;2.70;1.65;;;17.00;56.50;;;;;;5055242;28;20217;-65
2023/12/09 09:02:06;;;;;;;4.60;2.00;;;17.00;56.50;;;;;;5055226;28;20179;-65
2023/12/09 09:04:32;;;;;;;4.82;1.83;;;17.00;56.50;;;;;;5054308;28;20656;-66
2023/12/09 09:06:57;;;;;;;12.60;2.03;;;17.00;56.70;;;;;;5055107;28;20198;-66
2023/12/09 09:09:23;;;;;;;2.78;1.60;;;17.00;56.70;;;;;;5054740;28;20211;-67
2023/12/09 09:11:49;;;;;;;3.60;1.77;;;16.90;56.80;;;;;;5054596;28;20163;-66
2023/12/09 09:14:15;;;;;;;6.68;2.03;;;17.00;56.80;;;;;;5054941;28;20171;-63
2023/12/09 09:16:40;;;;;;;7.20;1.63;;;16.90;56.80;;;;;;5054859;28;20266;-64
2023/12/09 09:19:06;;;;;;;5.80;1.55;;;16.90;56.70;;;;;;5054427;28;20262;-64
2023/12/09 09:21:32;;;;;;;5.13;1.70;;;16.80;56.80;;;;;;5054668;28;20261;-64
2023/12/09 09:23:57;;;;;;;5.53;2.00;;;16.80;56.90;;;;;;5055281;28;20179;-63
2023/12/09 09:26:23;;;;;;;3.60;1.73;;;16.70;56.90;;;;;;5054132;28;20633;-64
2023/12/09 09:28:48;;;;;;;5.95;1.77;;;16.70;57.10;;;;;;5054838;28;20636;-63
2023/12/09 09:31:14;;;;;;;2.80;1.40;;;16.60;57.20;;;;;;5054548;28;20850;-64
2023/12/09 09:33:41;;;;;;;5.60;1.88;;;16.60;57.40;;;;;;5054269;28;20665;-64
2023/12/09 09:36:07;;;;;;;4.50;1.55;;;16.60;57.30;;;;;;5054740;28;20171;-63
2023/12/09 09:38:33;;;;;;;2.30;1.25;;;16.60;57.20;;;;;;5054439;28;20179;-63
2023/12/09 09:40:59;;;;;;;3.35;1.30;;;16.70;57.30;;;;;;5053490;28;20213;-63
2023/12/09 09:43:30;;;;;;;4.95;1.70;;;16.60;57.30;;;;;;5053547;28;20198;-64
2023/12/09 09:45:56;;;;;;;2.50;1.35;;;16.70;57.30;;;;;;5053189;28;20254;-65
2023/12/09 09:48:23;;;;;;;2.65;1.60;;;16.70;57.20;;;;;;5052956;28;20306;-65
2023/12/09 09:50:52;;;;;;;3.05;1.63;;;16.60;57.20;;;;;;5053401;28;20176;-65
2023/12/09 09:53:25;;;;;;;3.40;1.50;;;16.60;57.30;;;;;;5053313;28;20238;-65
2023/12/09 09:55:51;;;;;;;1.88;1.50;;;16.60;57.20;;;;;;5053339;28;20179;-64
2023/12/09 09:58:16;;;;;;;4.00;1.38;;;16.50;57.20;;;;;;5052810;28;20544;-63
2023/12/09 10:00:42;;;;;;;3.95;1.67;;;16.60;57.40;;;;;;5053890;28;20183;-63
2023/12/09 10:03:08;;;;;;;3.08;1.45;;;16.50;57.40;;;;;;5054506;28;20198;-63
2023/12/09 10:05:34;;;;;;;3.20;1.48;;;16.50;57.50;;;;;;5053969;28;20650;-64
2023/12/09 10:07:59;;;;;;;3.03;1.40;;;16.50;57.60;;;;;;5052182;28;20201;-62
2023/12/09 10:10:26;;;;;;;3.63;1.35;;;16.50;57.50;;;;;;5053924;28;20266;-64
2023/12/09 10:12:51;;;;;;;3.30;1.55;;;16.50;57.50;;;;;;5052850;28;20252;-63
2023/12/09 10:15:17;;;;;;;3.25;1.60;;;16.50;57.40;;;;;;5052051;28;20210;-64
2023/12/09 10:17:42;;;;;;;2.22;1.08;;;16.50;57.50;;;;;;5054201;28;20257;-64
2023/12/09 10:20:10;;;;;;;3.25;1.58;;;16.50;57.30;;;;;;5054255;28;20317;-63
2023/12/09 10:22:36;;;;;;;3.85;1.83;;;16.50;57.40;;;;;;5053132;28;20517;-64
2023/12/09 10:25:02;;;;;;;2.65;1.50;;;16.50;57.40;;;;;;5054025;28;20253;-64
2023/12/09 10:27:28;;;;;;;2.80;1.60;;;16.50;57.40;;;;;;5052301;28;20188;-64
2023/12/09 10:29:54;;;;;;;2.17;1.48;;;16.40;57.40;;;;;;5053286;28;20185;-64
2023/12/09 10:32:20;;;;;;;3.20;1.50;;;16.40;57.60;;;;;;5052258;28;20778;-64
2023/12/09 10:34:46;;;;;;;2.72;1.58;;;16.40;57.70;;;;;;5053657;28;20270;-64
2023/12/09 10:37:12;;;;;;;2.38;1.52;;;16.30;57.70;;;;;;5053019;28;20186;-63
2023/12/09 10:39:42;;;;;;;1.77;1.23;;;16.40;57.70;;;;;;5053415;28;20321;-63
2023/12/09 10:42:09;;;;;;;3.30;1.63;;;16.40;57.70;;;;;;5053575;28;20186;-63
2023/12/09 10:44:34;;;;;;;2.10;1.42;;;16.40;57.60;;;;;;5052806;28;20179;-64
2023/12/09 10:47:00;;;;;;;3.05;1.30;;;16.40;57.60;;;;;;5053398;28;20660;-64
2023/12/09 10:49:26;;;;;;;2.13;1.48;;;16.40;57.60;;;;;;5052309;28;20217;-65
2023/12/09 10:51:51;;;;;;;2.25;1.30;;;16.40;57.50;;;;;;5053480;28;20225;-64
2023/12/09 10:54:17;;;;;;;2.25;1.25;;;16.40;57.60;;;;;;5052475;28;20321;-64
2023/12/09 10:56:43;;;;;;;3.25;1.27;;;16.30;57.70;;;;;;5051111;28;20721;-63
2023/12/09 10:59:08;;;;;;;1.60;1.20;;;16.30;57.80;;;;;;5052337;28;20288;-64
2023/12/09 11:01:34;;;;;;;4.28;1.20;;;16.30;57.80;;;;;;5049717;28;20571;-63
2023/12/09 11:04:00;;;;;;;2.83;1.35;;;16.30;57.90;;;;;;5052586;28;20183;-64
2023/12/09 11:06:27;;;;;;;3.45;1.48;;;16.30;57.90;;;;;;5051563;28;20183;-64
2023/12/09 11:08:53;;;;;;;1.80;1.30;;;16.30;57.90;;;;;;5051771;28;20219;-63
2023/12/09 11:11:18;;;;;;;2.47;1.42;;;16.30;57.90;;;;;;5050860;28;20169;-64
2023/12/09 11:13:46;;;;;;;4.22;1.48;;;16.30;57.70;;;;;;5051593;28;20178;-63
2023/12/09 11:16:13;;;;;;;2.25;1.30;;;16.30;57.70;;;;;;5053069;28;20554;-63
2023/12/09 11:18:51;;;;;;;3.15;1.40;;;16.30;57.70;;;;;;5050946;28;20183;-63
2023/12/09 11:21:22;;;;;;;1.45;1.20;;;16.30;57.60;;;;;;5052587;28;20175;-63
2023/12/09 11:23:51;;;;;;;3.42;1.33;;;16.20;57.70;;;;;;5050625;28;20645;-63
2023/12/09 11:26:20;;;;;;;3.40;1.38;;;16.30;57.80;;;;;;5050434;28;20702;-63
2023/12/09 11:29:03;;;;;;;2.10;1.15;;;16.20;57.90;;;;;;5052754;28;20222;-63
2023/12/09 11:31:39;;;;;;;2.85;1.40;;;16.20;57.90;;;;;;5050446;28;20175;-64
2023/12/09 11:34:05;;;;;;;2.75;1.20;;;16.20;58.00;;;;;;5052560;28;20630;-63
2023/12/09 11:36:35;;;;;;;2.53;1.38;;;16.20;57.90;;;;;;5052444;28;20176;-63
2023/12/09 11:39:01;;;;;;;4.05;1.40;;;16.20;58.00;;;;;;5050814;28;20179;-63
2023/12/09 11:41:27;;;;;;;3.00;1.40;;;16.20;57.80;;;;;;5052167;28;20167;-64
2023/12/09 11:43:52;;;;;;;3.25;1.50;;;16.20;57.80;;;;;;5051208;28;20267;-64
2023/12/09 11:46:19;;;;;;;2.83;1.40;;;16.20;57.90;;;;;;5050233;28;20262;-65
2023/12/09 11:48:44;;;;;;;3.90;1.55;;;16.20;57.80;;;;;;5050980;28;20214;-64
2023/12/09 11:51:10;;;;;;;3.50;1.67;;;16.10;57.90;;;;;;5052539;28;20724;-64
2023/12/09 11:53:35;;;;;;;3.20;1.48;;;16.10;57.90;;;;;;5051297;28;20222;-64
2023/12/09 11:56:01;;;;;;;3.58;1.73;;;16.10;58.00;;;;;;5052396;28;20175;-64
2023/12/09 11:58:26;;;;;;;2.35;1.20;;;16.10;58.00;;;;;;5052052;28;20175;-63
2023/12/09 12:00:52;;;;;;;2.85;1.20;;;16.10;58.00;;;;;;5051527;28;20178;-63
2023/12/09 12:03:17;;;;;;;5.18;1.45;;;16.10;58.00;;;;;;5051796;28;20320;-64
2023/12/09 12:05:43;;;;;;;2.83;1.20;;;16.10;58.00;;;;;;5051609;28;20254;-63
2023/12/09 12:08:15;;;;;;;2.08;1.40;;;16.10;57.90;;;;;;5051335;28;20278;-63
2023/12/09 12:10:41;;;;;;;1.52;1.30;;;16.20;57.80;;;;;;5051091;28;20224;-66
2023/12/09 12:13:06;;;;;;;2.80;1.20;;;16.20;57.80;;;;;;5051888;28;20253;-63
2023/12/09 12:15:32;;;;;;;4.65;1.77;;;16.20;57.80;;;;;;5051134;28;20178;-64
2023/12/09 12:18:00;;;;;;;2.88;1.40;;;16.10;57.90;;;;;;5050776;28;20199;-63
2023/12/09 12:20:25;;;;;;;2.25;1.48;;;16.10;58.00;;;;;;5050684;28;20186;-64
2023/12/09 12:22:51;;;;;;;4.15;1.42;;;16.10;58.00;;;;;;5050267;28;20525;-64
2023/12/09 12:25:16;;;;;;;2.97;1.50;;;16.10;58.00;;;;;;5051741;28;20163;-63
2023/12/09 12:27:46;;;;;;;2.53;1.40;;;16.10;58.10;;;;;;5051489;28;20179;-64
2023/12/09 12:30:13;;;;;;;2.25;1.30;;;16.10;58.10;;;;;;5051852;28;20183;-64
2023/12/09 12:32:38;;;;;;;1.80;1.30;;;16.10;57.90;;;;;;5051858;28;20210;-64
2023/12/09 12:35:07;;;;;;;3.47;1.42;;;16.10;57.90;;;;;;5051214;28;20195;-63
2023/12/09 12:37:33;;;;;;;1.55;1.20;;;16.20;57.90;;;;;;5051582;28;20263;-63
2023/12/09 12:39:58;;;;;;;2.08;1.20;;;16.10;57.80;;;;;;5051784;28;20262;-64
2023/12/09 12:42:24;;;;;;;4.70;1.38;;;16.20;57.80;;;;;;5050845;28;20210;-64